Time;durP1;ratioP1;P1;durP2;ratioP2;P2;SDS_P1;SDS_P2;PMS_P1;PMS_P2;Temp;Humidity;BMP_temperature;BMP_pressure;BME280_temperature;BME280_humidity;BME280_pressure;Samples;Min_cycle;Max_cycle;Signal;HPM_P1;HPM_P2
2022/09/04 00:01:53;;;;;;;;;26.33;26.33;;;;;14.21;96.10;99879.78;6285552;20;3608580;-59
2022/09/04 00:04:41;;;;;;;;;25.67;23.33;;;;;14.13;96.53;99887.56;6282995;20;2846162;-59
2022/09/04 00:07:56;;;;;;;;;22.67;22.67;;;;;14.23;96.60;99885.06;6312423;20;2856532;-59
2022/09/04 00:10:41;;;;;;;;;27.33;27.33;;;;;14.20;96.57;99888.00;6315380;20;3602320;-59
2022/09/04 00:13:44;;;;;;;;;30.00;29.00;;;;;14.23;96.37;99883.22;6281269;20;3615902;-59
2022/09/04 00:17:07;;;;;;;;;27.33;22.00;;;;;14.15;96.25;99884.78;6281342;20;2852423;-59
2022/09/04 00:19:55;;;;;;;;;24.33;23.00;;;;;14.00;97.23;99886.75;6316376;20;3589796;-59
2022/09/04 00:22:54;;;;;;;;;26.00;26.00;;;;;13.73;98.58;99885.06;6279892;20;3605461;-58
2022/09/04 00:26:11;;;;;;;;;27.00;25.67;;;;;13.69;99.37;99888.97;6283891;20;3602317;-58
2022/09/04 00:28:53;;;;;;;;;25.67;25.00;;;;;14.14;97.73;99894.72;6314941;20;3604387;-59
2022/09/04 00:31:47;;;;;;;;;21.50;21.50;;;;;13.83;98.35;99894.22;6279451;20;2836779;-59
2022/09/04 00:35:10;;;;;;;;;26.33;24.67;;;;;13.67;98.28;99896.31;6278204;20;3604394;-59
2022/09/04 00:38:01;;;;;;;;;25.67;25.00;;;;;13.83;98.33;99899.63;6314371;20;3585646;-59
2022/09/04 00:40:55;;;;;;;;;24.50;24.50;;;;;13.83;98.26;99905.03;6280557;20;2854500;-59
2022/09/04 00:44:27;;;;;;;;;28.00;25.33;;;;;13.70;98.86;99896.09;6280023;20;3610754;-59
2022/09/04 00:47:26;;;;;;;;;25.67;25.00;;;;;13.60;98.58;99889.63;6284800;20;3593982;-59
2022/09/04 00:50:51;;;;;;;;;25.67;22.00;;;;;13.48;100.00;99902.16;6281378;20;2845098;-59
2022/09/04 00:54:06;;;;;;;;;23.00;22.00;;;;;13.79;98.20;99906.22;6315615;20;3581510;-59
2022/09/04 00:57:29;;;;;;;;;23.33;23.33;;;;;13.78;97.97;99909.91;6285013;20;3587715;-59
2022/09/04 01:00:18;;;;;;;;;24.67;23.67;;;;;13.77;98.49;99902.78;6280799;20;2854417;-59
2022/09/04 01:03:06;;;;;;;;;24.00;23.67;;;;;13.59;99.57;99904.94;6311592;20;3594010;-59
2022/09/04 01:06:00;;;;;;;;;25.00;25.00;;;;;13.64;99.77;99901.94;6283867;20;3590840;-58
2022/09/04 01:09:09;;;;;;;;;22.00;22.00;;;;;13.84;98.74;99903.19;6311101;20;2845057;-59
2022/09/04 01:12:08;;;;;;;;;22.00;21.00;;;;;14.12;96.13;99907.47;6279917;20;2844088;-58
2022/09/04 01:15:14;;;;;;;;;24.67;24.67;;;;;13.66;97.74;99899.97;6281360;20;3594042;-59
2022/09/04 01:18:28;;;;;;;;;26.33;25.00;;;;;13.66;97.03;99899.97;6309296;20;3598165;-58
2022/09/04 01:21:29;;;;;;;;;25.67;23.67;;;;;13.44;96.62;99902.47;6312198;20;3596105;-59
2022/09/04 01:24:51;;;;;;;;;27.67;23.00;;;;;13.34;97.60;99903.09;6277665;20;2858679;-59
2022/09/04 01:27:44;;;;;;;;;23.00;23.00;;;;;13.53;97.77;99901.81;6308335;20;2845578;-58
2022/09/04 01:30:21;;;;;;;;;22.00;20.33;;;;;13.34;97.32;99905.78;6280768;20;2848289;-59
2022/09/04 01:33:24;;;;;;;;;24.67;24.67;;;;;13.48;98.37;99906.66;6314354;20;3581474;-59
2022/09/04 01:37:01;;;;;;;;;26.00;24.33;;;;;13.55;97.37;99898.03;6280086;20;3592999;-59
2022/09/04 01:39:33;;;;;;;;;25.00;24.00;;;;;13.82;96.62;99903.31;6281032;20;3586743;-59
2022/09/04 01:42:21;;;;;;;;;27.33;26.67;;;;;13.80;96.11;99907.09;6279926;20;3596352;-59
2022/09/04 01:44:50;;;;;;;;;30.33;27.33;;;;;13.48;97.63;99909.34;6311047;20;3591956;-59
2022/09/04 01:47:42;;;;;;;;;25.00;25.00;;;;;13.58;98.29;99913.13;6279805;20;2858617;-58
2022/09/04 01:50:23;;;;;;;;;27.00;27.00;;;;;13.36;98.86;99922.72;6314273;20;3587935;-59
2022/09/04 01:53:25;;;;;;;;;26.00;26.00;;;;;13.75;97.19;99926.31;6282200;20;3602470;-59
2022/09/04 01:56:23;;;;;;;;;25.00;24.00;;;;;13.69;97.35;99925.88;6279832;20;3591899;-58
2022/09/04 01:59:51;;;;;;;;;28.33;27.33;;;;;13.44;98.64;99926.75;6280568;20;3601432;-59
2022/09/04 02:02:40;;;;;;;;;28.00;25.67;;;;;13.43;98.92;99919.59;6282432;20;3592004;-59
2022/09/04 02:05:36;;;;;;;;;29.67;27.67;;;;;13.46;99.14;99920.25;6280779;20;2851486;-59
2022/09/04 02:08:58;;;;;;;;;28.33;27.00;;;;;13.34;99.36;99926.50;6312260;20;3588816;-59
2022/09/04 02:11:31;;;;;;;;;29.33;27.67;;;;;12.97;100.00;99934.38;6274094;20;3578539;-58
2022/09/04 02:14:22;;;;;;;;;24.67;24.67;;;;;13.38;99.94;99936.97;6273118;20;2851554;-58
2022/09/04 02:17:19;;;;;;;;;28.67;27.00;;;;;13.20;99.46;99930.13;6306351;20;3590916;-58
2022/09/04 02:20:11;;;;;;;;;28.00;25.33;;;;;13.43;98.98;99930.38;6276691;20;2845136;-59
2022/09/04 02:23:03;;;;;;;;;26.00;26.00;;;;;13.44;98.24;99926.75;6305619;20;3600228;-59
2022/09/04 02:25:52;;;;;;;;;26.00;24.67;;;;;13.07;99.47;99931.94;6277599;20;3606625;-58
2022/09/04 02:28:50;;;;;;;;;31.00;24.33;;;;;13.64;97.60;99934.31;6307158;20;3599246;-58
2022/09/04 02:31:53;;;;;;;;;24.33;24.33;;;;;13.59;97.39;99929.22;6281596;20;3600256;-58
2022/09/04 02:34:32;;;;;;;;;26.00;26.00;;;;;13.47;98.43;99924.69;6275257;20;2858683;-58
2022/09/04 02:37:44;;;;;;;;;24.33;24.00;;;;;13.12;99.84;99933.34;6310301;20;3592047;-59
2022/09/04 02:40:28;;;;;;;;;28.67;26.33;;;;;13.14;100.00;99925.16;6279559;20;3585716;-59
2022/09/04 02:43:34;;;;;;;;;30.33;30.00;;;;;13.39;99.85;99929.75;6280318;20;3580436;-59
2022/09/04 02:47:03;;;;;;;;;30.33;29.33;;;;;13.36;100.00;99936.22;6278161;20;3584686;-59
2022/09/04 02:49:58;;;;;;;;;27.33;27.33;;;;;13.35;100.00;99931.81;6281996;20;3582547;-59
2022/09/04 02:52:51;;;;;;;;;29.00;28.67;;;;;13.40;100.00;99934.16;6280010;20;3587737;-59
2022/09/04 02:56:24;;;;;;;;;28.00;28.00;;;;;13.67;99.70;99934.09;6278506;20;3598170;-59
2022/09/04 02:59:49;;;;;;;;;28.00;27.33;;;;;13.79;97.94;99933.19;6309781;20;3585802;-59
2022/09/04 03:02:35;;;;;;;;;23.67;23.67;;;;;13.67;99.50;99931.38;6274813;20;2850249;-59
2022/09/04 03:05:24;;;;;;;;;31.00;28.67;;;;;13.59;100.00;99928.38;6308294;20;3611755;-59
2022/09/04 03:08:46;;;;;;;;;24.00;24.00;;;;;14.09;97.38;99934.69;6277986;20;3598177;-59
2022/09/04 03:11:45;;;;;;;;;24.33;24.33;;;;;14.23;95.95;99931.84;6272870;20;2844048;-58
2022/09/04 03:14:57;;;;;;;;;22.00;21.67;;;;;13.74;97.56;99921.88;6309046;20;3587759;-52
2022/09/04 03:18:00;;;;;;;;;20.00;18.00;;;;;13.92;96.86;99927.78;6275660;20;3572102;-50
2022/09/04 03:20:50;;;;;;;;;22.00;20.50;;;;;13.80;97.06;99926.84;6275308;20;2848158;-50
2022/09/04 03:23:58;;;;;;;;;22.00;22.00;;;;;14.01;95.87;99924.44;6272531;20;2850270;-53
2022/09/04 03:26:41;;;;;;;;;17.00;17.00;;;;;13.83;95.99;99921.22;6279368;20;2828580;-51
2022/09/04 03:29:33;;;;;;;;;24.00;22.50;;;;;13.82;96.42;99927.59;6275210;20;2848182;-52
2022/09/04 03:32:28;;;;;;;;;21.50;21.50;;;;;13.79;96.82;99933.19;6279988;20;2846309;-55
2022/09/04 03:35:34;;;;;;;;;20.50;20.50;;;;;13.76;96.92;99944.22;6275465;20;2838874;-54
2022/09/04 03:38:36;;;;;;;;;21.50;17.00;;;;;13.81;96.80;99941.19;6274309;20;2821292;-52
2022/09/04 03:41:52;;;;;;;;;19.00;19.00;;;;;13.88;96.62;99938.94;6278933;20;2491923;-53
2022/09/04 03:44:38;;;;;;;;;16.00;16.00;;;;;13.87;95.96;99948.84;6274427;20;2496136;-54
2022/09/04 03:48:11;;;;;;;;;14.00;14.00;;;;;13.79;97.38;99949.38;6282963;20;2500502;-54
2022/09/04 03:52:00;;;;;;;;;14.00;14.00;;;;;13.56;98.23;99947.44;6286157;20;2798340;-53
2022/09/04 03:54:53;;;;;;;;;17.00;17.00;;;;;13.81;98.43;99952.84;6279238;20;2828477;-54
2022/09/04 03:57:55;;;;;;;;;12.00;12.00;;;;;13.66;98.39;99964.72;6289734;20;2799293;-52
2022/09/04 04:00:24;;;;;;;;;15.00;15.00;;;;;13.72;98.12;99963.44;6284735;20;3519037;-52
2022/09/04 04:03:40;;;;;;;;;15.67;15.67;;;;;13.71;98.31;99965.25;6315023;20;3547159;-53
2022/09/04 04:06:35;;;;;;;;;12.00;12.00;;;;;13.66;98.37;99975.50;6280278;20;2800306;-54
2022/09/04 04:09:34;;;;;;;;;13.67;12.33;;;;;13.77;97.96;99972.06;6310054;20;3512927;-53
2022/09/04 04:12:45;;;;;;;;;13.00;12.00;;;;;13.99;96.89;99974.97;6314289;20;2791973;-48
2022/09/04 04:15:36;;;;;;;;;6.50;6.50;;;;;14.19;95.24;99987.06;6288548;20;2739832;-52
2022/09/04 04:18:38;;;;;;;;;14.00;11.33;;;;;14.19;94.98;99987.06;6278885;20;2795100;-51
2022/09/04 04:21:32;;;;;;;;;11.67;10.33;;;;;14.01;96.36;99996.47;6316294;20;3520034;-51
2022/09/04 04:24:29;;;;;;;;;15.00;13.00;;;;;14.18;95.96;100009.63;6314446;20;2806517;-52
2022/09/04 04:27:07;;;;;;;;;14.50;13.00;;;;;14.38;94.50;100004.66;6286560;20;2795044;-53
2022/09/04 04:29:50;;;;;;;;;14.00;14.00;;;;;14.42;94.38;100009.69;6280817;20;3534625;-55
2022/09/04 04:32:42;;;;;;;;;13.67;13.67;;;;;14.42;94.52;100011.53;6310492;20;3533638;-51
2022/09/04 04:35:54;;;;;;;;;14.00;13.00;;;;;14.56;93.52;100013.25;6316691;20;2804545;-54
2022/09/04 04:39:10;;;;;;;;;11.50;11.00;;;;;14.51;94.28;100021.69;6285129;20;2792099;-53
2022/09/04 04:42:08;;;;;;;;;12.00;12.00;;;;;14.64;93.30;100027.97;6278569;20;2818143;-51
2022/09/04 04:48:40;;;;;;;;;12.00;12.00;;;;;14.84;92.27;100033.75;6280623;20;3505585;-53
2022/09/04 04:51:39;;;;;;;;;13.00;11.00;;;;;14.79;91.92;100041.31;6318969;20;2789823;-52
2022/09/04 04:54:41;;;;;;;;;13.00;12.00;;;;;14.71;92.48;100050.00;6288483;20;2806579;-54
2022/09/04 04:58:37;;;;;;;;;9.67;9.67;;;;;14.69;92.95;100044.72;6283449;20;2763173;-51
2022/09/04 05:02:02;;;;;;;;;13.50;12.00;;;;;14.66;92.26;100047.63;6309679;20;2794024;-52
2022/09/04 05:05:16;;;;;;;;;9.40;8.20;;;;;14.84;90.89;100047.25;6307553;20;2752363;-52
2022/09/04 05:08:08;;;;;;;;;10.00;10.00;;;;;14.84;91.35;100049.97;6315780;20;2796322;-54
2022/09/04 05:11:22;;;;;;;;;9.67;9.67;;;;;14.72;91.30;100051.75;6279705;20;2781652;-55
2022/09/04 05:15:19;;;;;;;;;11.00;9.00;;;;;14.78;91.39;100062.09;6314337;20;2776341;-55
2022/09/04 05:18:03;;;;;;;;;7.50;7.50;;;;;14.99;91.15;100056.94;6279693;20;2752343;-52
2022/09/04 05:21:15;;;;;;;;;9.00;8.00;;;;;14.98;90.85;100057.94;6284042;20;2743997;-54
2022/09/04 05:24:03;;;;;;;;;6.50;6.00;;;;;15.06;90.31;100066.34;6278347;20;2746227;-54
2022/09/04 05:27:06;;;;;;;;;7.14;7.14;;;;;15.36;89.10;100056.91;6323108;20;3455665;-54
2022/09/04 05:29:50;;;;;;;;;7.60;7.00;;;;;15.31;89.04;100059.09;6341539;20;2748341;-52
2022/09/04 05:32:57;;;;;;;;;5.50;5.50;;;;;15.48;88.30;100060.50;6312672;20;2747251;-54
2022/09/04 05:35:44;;;;;;;;;9.40;7.00;;;;;15.53;88.90;100070.03;6309838;20;2736702;-51
2022/09/04 05:38:45;;;;;;;;;8.00;8.00;;;;;15.73;88.09;100064.94;6305789;20;2746210;-54
2022/09/04 05:42:01;;;;;;;;;7.00;7.00;;;;;15.90;87.01;100078.03;6280873;20;2748281;-54
2022/09/04 05:44:49;;;;;;;;;8.50;6.00;;;;;16.02;86.71;100077.09;6282788;20;2745101;-52
2022/09/04 05:47:47;;;;;;;;;8.00;8.00;;;;;16.14;86.50;100086.13;6282589;20;2744041;-53
2022/09/04 05:50:52;;;;;;;;;7.00;6.00;;;;;16.12;86.23;100081.81;6284223;20;2743084;-55
2022/09/04 05:53:39;;;;;;;;;7.00;7.00;;;;;16.00;86.66;100092.59;6282800;20;2737839;-50
2022/09/04 05:56:43;;;;;;;;;5.80;5.80;;;;;16.13;86.74;100094.34;6319072;20;2465024;-52
2022/09/04 05:59:55;;;;;;;;;6.00;6.00;;;;;16.35;85.30;100099.81;6309843;20;2746096;-53
2022/09/04 06:02:59;;;;;;;;;8.00;7.00;;;;;16.36;85.00;100100.69;6286170;20;2744065;-52
2022/09/04 06:05:57;;;;;;;;;6.00;4.50;;;;;16.35;85.43;100099.81;6285450;20;2740944;-53
2022/09/04 06:08:53;;;;;;;;;6.00;6.00;;;;;16.29;85.33;100100.28;6319019;20;3451358;-51
2022/09/04 06:12:27;;;;;;;;;8.00;6.00;;;;;16.60;84.02;100093.28;6314153;20;2741910;-52
2022/09/04 06:15:33;;;;;;;;;8.67;8.00;;;;;16.93;83.57;100101.56;6274235;20;2750318;-51
2022/09/04 06:18:36;;;;;;;;;8.40;8.40;;;;;16.83;83.11;100091.47;6336933;20;2757621;-55
2022/09/04 06:21:45;;;;;;;;;6.50;6.50;;;;;17.03;83.03;100091.69;6282255;20;2733646;-50
2022/09/04 06:24:53;;;;;;;;;8.50;7.00;;;;;17.59;80.59;100096.09;6284042;20;2739889;-52
2022/09/04 06:27:36;;;;;;;;;9.00;9.00;;;;;17.48;81.01;100083.44;6288662;20;2739858;-54
2022/09/04 06:30:11;;;;;;;;;7.00;7.00;;;;;18.24;79.11;100097.75;6307303;20;2739854;-52
2022/09/04 06:33:12;;;;;;;;;8.00;8.00;;;;;22.61;64.69;100106.81;6320992;20;2750249;-54
2022/09/04 06:36:51;;;;;;;;;9.00;7.80;;;;;22.01;64.08;100112.16;6307826;20;2734642;-53
2022/09/04 06:39:42;;;;;;;;;9.00;7.20;;;;;23.65;59.76;100114.78;6333719;20;2746153;-52
2022/09/04 06:42:51;;;;;;;;;7.60;7.60;;;;;25.29;53.92;100119.28;6305768;20;2734686;-49
2022/09/04 06:46:14;;;;;;;;;7.00;7.00;;;;;26.65;50.45;100118.66;6312264;20;2744090;-53
2022/09/04 06:48:56;;;;;;;;;7.20;7.20;;;;;22.12;62.24;100112.78;6337264;20;2738937;-49
2022/09/04 06:52:02;;;;;;;;;8.67;7.67;;;;;20.03;70.51;100104.31;6283441;20;2755644;-49
2022/09/04 06:55:15;;;;;;;;;9.60;9.00;;;;;19.91;70.98;100106.34;6337971;20;2771206;-50
2022/09/04 06:58:24;;;;;;;;;7.67;7.67;;;;;20.21;71.17;100113.47;6284798;20;2748208;-48
2022/09/04 07:02:10;;;;;;;;;10.00;9.00;;;;;19.53;74.05;100108.88;6338240;20;2774252;-49
2022/09/04 07:05:49;;;;;;;;;8.20;8.20;;;;;19.10;76.20;100109.22;6306810;20;2751415;-51
2022/09/04 07:08:41;;;;;;;;;10.00;8.67;;;;;18.89;77.25;100098.41;6272867;20;2766979;-50
2022/09/04 07:11:15;;;;;;;;;11.00;11.00;;;;;18.81;76.37;100100.97;6308916;20;2794003;-50
2022/09/04 07:14:15;;;;;;;;;13.00;13.00;;;;;18.86;77.29;100104.13;6314208;20;2802425;-47
2022/09/04 07:17:26;;;;;;;;;11.00;11.00;;;;;18.89;76.63;100106.56;6285804;20;2796116;-50
2022/09/04 07:20:21;;;;;;;;;10.67;10.67;;;;;19.06;76.67;100110.50;6283238;20;3509780;-46
2022/09/04 07:23:37;;;;;;;;;10.67;10.00;;;;;19.24;76.82;100105.25;6312711;20;2789851;-48
2022/09/04 07:26:38;;;;;;;;;11.67;11.67;;;;;19.04;77.28;100115.22;6317109;20;2809662;-49
2022/09/04 07:29:21;;;;;;;;;9.00;9.00;;;;;19.10;76.51;100114.66;6322921;20;2740908;-45
2022/09/04 07:32:04;;;;;;;;;14.50;11.00;;;;;18.91;78.21;100115.47;6288475;20;2795162;-47
2022/09/04 07:34:55;;;;;;;;;12.00;10.00;;;;;18.77;78.98;100118.53;6291880;20;2788849;-48
2022/09/04 07:37:57;;;;;;;;;10.00;10.00;;;;;18.83;78.46;100118.03;6288319;20;2794055;-45
2022/09/04 07:41:39;;;;;;;;;13.00;13.00;;;;;18.80;77.98;100126.44;6283456;20;2793053;-49
2022/09/04 07:44:49;;;;;;;;;11.00;11.00;;;;;18.77;78.24;100124.88;6319777;20;2786794;-51
2022/09/04 07:47:35;;;;;;;;;12.60;11.60;;;;;18.63;78.99;100126.03;6310097;20;2785692;-51
2022/09/04 07:50:16;;;;;;;;;11.67;11.67;;;;;18.47;80.33;100135.69;6285858;20;2792052;-47
2022/09/04 07:53:18;;;;;;;;;13.33;11.00;;;;;18.37;82.60;100135.63;6316181;20;3517978;-48
2022/09/04 07:56:44;;;;;;;;;12.67;10.67;;;;;18.22;82.97;100129.69;6313670;20;3512894;-51
2022/09/04 07:59:24;;;;;;;;;15.00;13.00;;;;;18.47;82.03;100136.53;6314419;20;3516935;-51
2022/09/04 08:02:32;;;;;;;;;15.67;14.67;;;;;18.34;82.24;100141.34;6317648;20;3535814;-49
2022/09/04 08:05:33;;;;;;;;;15.00;15.00;;;;;18.50;80.68;100140.84;6287297;20;3530487;-49
2022/09/04 08:08:58;;;;;;;;;13.33;13.33;;;;;18.55;81.49;100144.91;6283411;20;2802329;-51
2022/09/04 08:11:44;;;;;;;;;12.00;12.00;;;;;18.94;78.40;100147.00;6316399;20;3526268;-49
2022/09/04 08:14:41;;;;;;;;;13.50;13.50;;;;;19.14;77.68;100156.97;6288433;20;2789842;-52
2022/09/04 08:18:00;;;;;;;;;11.00;11.00;;;;;19.27;77.84;100152.13;6286391;20;2802331;-51
2022/09/04 08:20:51;;;;;;;;;12.67;12.00;;;;;19.29;77.32;100149.25;6288018;20;3515925;-54
2022/09/04 08:24:04;;;;;;;;;15.00;14.50;;;;;19.28;76.87;100152.97;6315432;20;2491979;-52
2022/09/04 08:27:22;;;;;;;;;15.33;15.33;;;;;19.50;76.98;100152.72;6282446;20;3544082;-50
2022/09/04 08:30:07;;;;;;;;;15.00;13.33;;;;;19.62;75.88;100153.47;6284256;20;2815881;-51
2022/09/04 08:33:22;;;;;;;;;13.67;11.33;;;;;19.74;77.04;100157.81;6313667;20;3510773;-47
2022/09/04 08:36:20;;;;;;;;;10.33;10.33;;;;;19.79;75.00;100154.66;6316561;20;3509703;-50
2022/09/04 08:39:34;;;;;;;;;7.20;7.20;;;;;20.25;74.19;100164.00;6339008;20;2746083;-53
2022/09/04 08:42:28;;;;;;;;;11.00;9.00;;;;;20.51;72.57;100160.66;6314951;20;3497210;-50
2022/09/04 08:45:31;;;;;;;;;13.50;12.50;;;;;20.89;71.86;100165.19;6324757;20;2792976;-53
2022/09/04 08:49:06;;;;;;;;;14.00;13.00;;;;;20.87;70.28;100164.47;6284147;20;3534617;-51
2022/09/04 08:52:30;;;;;;;;;12.00;12.00;;;;;20.95;69.94;100166.44;6311400;20;3523340;-53
2022/09/04 08:56:05;;;;;;;;;10.33;10.33;;;;;20.61;70.60;100159.66;6319636;20;2787094;-49
2022/09/04 08:58:55;;;;;;;;;13.00;11.67;;;;;20.90;70.80;100169.63;6317003;20;2807652;-50
2022/09/04 09:02:02;;;;;;;;;10.60;9.80;;;;;20.99;69.97;100173.34;6342640;20;2779462;-57
2022/09/04 09:05:27;;;;;;;;;12.00;11.67;;;;;21.05;70.49;100170.00;6286119;20;3534598;-59
2022/09/04 09:09:00;;;;;;;;;11.33;11.00;;;;;21.07;69.72;100162.53;6283240;20;3510795;-59
2022/09/04 09:11:52;;;;;;;;;11.33;11.33;;;;;21.51;68.88;100162.75;6307303;20;3515854;-58
2022/09/04 09:15:09;;;;;;;;;11.00;11.00;;;;;21.66;68.04;100165.81;6314302;20;3512719;-51
2022/09/04 09:17:56;;;;;;;;;14.33;14.00;;;;;21.42;68.44;100167.25;6313729;20;2810892;-58
2022/09/04 09:21:10;;;;;;;;;13.67;13.33;;;;;21.36;67.86;100164.25;6313441;20;3520203;-58
2022/09/04 09:24:38;;;;;;;;;13.00;12.33;;;;;22.04;67.22;100161.09;6279325;20;3518984;-58
2022/09/04 09:28:03;;;;;;;;;12.33;11.33;;;;;22.08;66.51;100154.28;6311087;20;3529398;-58
2022/09/04 09:31:26;;;;;;;;;9.33;9.33;;;;;22.52;65.08;100163.38;6284367;20;3484655;-58
2022/09/04 09:34:34;;;;;;;;;11.00;11.00;;;;;23.17;62.98;100156.59;6311631;20;3513826;-58
2022/09/04 09:37:22;;;;;;;;;12.33;12.33;;;;;23.46;62.45;100161.69;6316837;20;2801690;-58
2022/09/04 09:40:35;;;;;;;;;11.67;10.00;;;;;23.41;62.67;100164.94;6313292;20;3510789;-58
2022/09/04 09:43:40;;;;;;;;;12.00;12.00;;;;;23.06;62.61;100159.63;6277458;20;3538850;-58
2022/09/04 09:47:00;;;;;;;;;9.67;9.00;;;;;22.83;62.71;100162.91;6285128;20;2760741;-58
2022/09/04 09:50:02;;;;;;;;;13.00;13.00;;;;;23.15;63.40;100164.16;6314972;20;3534683;-58
2022/09/04 09:53:04;;;;;;;;;14.33;14.33;;;;;22.68;63.62;100161.78;6281391;20;3530570;-54
2022/09/04 09:56:17;;;;;;;;;13.00;13.00;;;;;23.13;62.79;100172.50;6282461;20;3524267;-58
2022/09/04 09:59:19;;;;;;;;;11.67;11.67;;;;;23.41;62.68;100164.09;6284240;20;2788888;-51
2022/09/04 10:02:07;;;;;;;;;11.00;11.00;;;;;23.49;62.33;100166.84;6316249;20;3505531;-51
2022/09/04 10:05:40;;;;;;;;;13.00;11.33;;;;;23.40;61.24;100163.19;6315995;20;3516932;-52
2022/09/04 10:08:45;;;;;;;;;15.00;15.00;;;;;22.96;61.86;100157.88;6309206;20;2810723;-52
2022/09/04 10:11:40;;;;;;;;;10.67;10.67;;;;;22.85;63.20;100157.25;6288129;20;2795057;-52
2022/09/04 10:14:56;;;;;;;;;12.33;10.67;;;;;23.47;62.21;100154.34;6311504;20;3520185;-49
2022/09/04 10:18:12;;;;;;;;;11.00;11.00;;;;;23.37;61.09;100160.78;6278447;20;3531648;-51
2022/09/04 10:21:19;;;;;;;;;10.67;10.33;;;;;23.59;61.13;100163.94;6283841;20;3505433;-51
2022/09/04 10:24:11;;;;;;;;;12.00;12.00;;;;;23.63;61.44;100163.44;6310351;20;3529422;-51
2022/09/04 10:27:29;;;;;;;;;12.00;12.00;;;;;23.69;60.20;100161.06;6283900;20;2799302;-51
2022/09/04 10:30:21;;;;;;;;;11.33;11.33;;;;;23.36;60.85;100150.88;6312560;20;3522123;-54
2022/09/04 10:33:25;;;;;;;;;11.67;11.67;;;;;23.65;59.01;100157.81;6283842;20;2805471;-53
2022/09/04 10:36:29;;;;;;;;;11.00;11.00;;;;;23.58;57.87;100154.88;6310956;20;3519070;-50
2022/09/04 10:42:56;;;;;;;;;12.67;12.67;;;;;23.31;59.18;100156.00;6278607;20;3523341;-53
2022/09/04 10:45:40;;;;;;;;;10.00;9.00;;;;;23.85;59.09;100159.25;6283312;20;3492995;-59
2022/09/04 10:49:09;;;;;;;;;12.00;11.00;;;;;23.83;59.59;100157.72;6310633;20;3523158;-59
2022/09/04 10:52:29;;;;;;;;;13.00;13.00;;;;;23.38;59.80;100159.78;6310018;20;3510797;-59
2022/09/04 10:55:56;;;;;;;;;13.00;11.67;;;;;23.50;59.34;100162.22;6287811;20;2788801;-58
2022/09/04 10:59:32;;;;;;;;;11.00;11.00;;;;;23.73;59.58;100160.59;6314359;20;3540255;-58
2022/09/04 11:02:49;;;;;;;;;11.00;11.00;;;;;23.99;58.41;100165.97;6283812;20;3528335;-58
2022/09/04 11:06:01;;;;;;;;;11.00;11.00;;;;;24.14;58.19;100162.53;6285333;20;2483597;-58
2022/09/04 11:09:02;;;;;;;;;11.33;10.00;;;;;24.30;57.75;100168.03;6313419;20;3510677;-58
2022/09/04 11:11:57;;;;;;;;;12.67;10.33;;;;;23.91;58.48;100159.59;6316428;20;3510632;-58
2022/09/04 11:15:14;;;;;;;;;12.33;10.33;;;;;24.43;57.05;100160.13;6316724;20;3512832;-57
2022/09/04 11:18:12;;;;;;;;;14.67;12.00;;;;;24.44;56.91;100164.63;6316367;20;3539797;-59
2022/09/04 11:21:32;;;;;;;;;11.33;11.33;;;;;24.32;56.79;100169.56;6284393;20;3528549;-59
2022/09/04 11:24:47;;;;;;;;;11.00;11.00;;;;;24.58;56.02;100174.06;6315162;20;3538771;-60
2022/09/04 11:28:12;;;;;;;;;14.00;11.00;;;;;24.56;56.32;100170.63;6281323;20;3517957;-60
2022/09/04 11:31:33;;;;;;;;;12.00;11.00;;;;;24.37;56.70;100170.94;6315979;20;2483632;-58
2022/09/04 11:34:49;;;;;;;;;10.67;9.33;;;;;24.38;56.49;100164.41;6316713;20;2781511;-53
2022/09/04 11:37:35;;;;;;;;;16.33;15.00;;;;;24.49;56.33;100169.63;6318225;20;2483731;-51
2022/09/04 11:40:15;;;;;;;;;19.67;18.33;;;;;24.32;56.80;100169.56;6319484;20;3570041;-52
2022/09/04 11:43:47;;;;;;;;;13.67;13.67;;;;;24.06;58.24;100171.63;6284741;20;2483693;-55
2022/09/04 11:47:00;;;;;;;;;15.00;13.00;;;;;24.11;59.03;100169.22;6319995;20;2483654;-54
2022/09/04 11:49:56;;;;;;;;;14.00;12.33;;;;;23.74;59.48;100158.72;6315685;20;3533556;-55
2022/09/04 11:52:59;;;;;;;;;15.33;12.33;;;;;23.74;59.51;100159.56;6286583;20;3525225;-58
2022/09/04 11:56:39;;;;;;;;;13.67;12.67;;;;;23.83;59.46;100163.19;6287714;20;2483589;-58
2022/09/04 11:59:30;;;;;;;;;9.00;7.67;;;;;23.69;59.01;100152.84;6318933;20;2756543;-53
2022/09/04 12:02:29;;;;;;;;;15.33;14.00;;;;;23.48;59.76;100150.56;6319242;20;2483585;-52
2022/09/04 12:05:43;;;;;;;;;13.00;13.00;;;;;23.34;60.48;100146.56;6315640;20;3519221;-55
2022/09/04 12:08:47;;;;;;;;;12.00;12.00;;;;;23.32;60.52;100144.00;6286541;20;2809627;-51
2022/09/04 12:12:20;;;;;;;;;17.00;14.33;;;;;23.13;60.92;100139.63;6317794;20;3542002;-53
2022/09/04 12:15:21;;;;;;;;;15.00;15.00;;;;;23.03;61.85;100138.06;6319537;20;2483597;-51
2022/09/04 12:18:35;;;;;;;;;11.67;11.67;;;;;23.17;61.44;100142.91;6314043;20;3529400;-49
2022/09/04 12:21:41;;;;;;;;;14.00;14.00;;;;;23.34;61.29;100138.34;6286207;20;3530489;-53
2022/09/04 12:24:51;;;;;;;;;12.67;12.67;;;;;23.00;61.64;100137.34;6287388;20;2797231;-50
2022/09/04 12:28:22;;;;;;;;;13.00;12.00;;;;;23.07;61.63;100131.25;6317364;20;2794111;-54
2022/09/04 12:31:00;;;;;;;;;16.67;14.00;;;;;22.85;62.26;100138.94;6283816;20;3544100;-55
2022/09/04 12:33:41;;;;;;;;;13.67;12.33;;;;;23.06;61.90;100132.25;6286481;20;3518076;-56
2022/09/04 12:37:05;;;;;;;;;14.00;14.00;;;;;22.72;62.76;100135.78;6284574;20;3539825;-59
2022/09/04 12:40:11;;;;;;;;;13.00;12.67;;;;;23.06;62.14;100132.25;6285345;20;2489952;-59
2022/09/04 12:43:08;;;;;;;;;12.33;12.33;;;;;22.79;62.51;100136.88;6317966;20;2483612;-60
2022/09/04 12:46:04;;;;;;;;;14.00;12.33;;;;;23.07;60.73;100144.94;6313688;20;3516016;-59
2022/09/04 12:48:53;;;;;;;;;11.00;11.00;;;;;22.66;62.18;100145.50;6280326;20;3510716;-61
2022/09/04 12:51:25;;;;;;;;;7.80;7.80;;;;;22.37;63.54;100143.09;6342842;20;2761724;-61
2022/09/04 12:54:23;;;;;;;;;12.67;11.33;;;;;22.70;62.88;100148.81;6285630;20;3522500;-60
2022/09/04 12:57:23;;;;;;;;;12.00;12.00;;;;;22.64;62.93;100144.81;6316484;20;2784767;-57
2022/09/04 13:00:11;;;;;;;;;12.67;12.67;;;;;22.81;62.38;100145.78;6314216;20;3531476;-60
2022/09/04 13:03:20;;;;;;;;;13.00;13.00;;;;;22.69;62.87;100142.44;6283508;20;2483579;-60
2022/09/04 13:06:33;;;;;;;;;15.67;14.00;;;;;22.63;62.76;100136.78;6320434;20;2811752;-60
2022/09/04 13:09:31;;;;;;;;;14.00;13.33;;;;;22.72;62.93;100142.16;6307851;20;3525346;-60
2022/09/04 13:13:05;;;;;;;;;13.00;11.00;;;;;23.08;62.29;100132.94;6282118;20;3510750;-60
2022/09/04 13:15:38;;;;;;;;;12.67;12.67;;;;;23.15;61.93;100134.88;6279297;20;3521151;-60
2022/09/04 13:18:21;;;;;;;;;12.67;12.67;;;;;23.33;61.47;100134.75;6318767;20;2789039;-60
2022/09/04 13:21:24;;;;;;;;;12.00;12.00;;;;;23.39;61.55;100130.50;6312852;20;3503449;-60
2022/09/04 13:24:42;;;;;;;;;11.67;11.67;;;;;23.54;60.23;100130.69;6281879;20;3533557;-60
2022/09/04 13:27:37;;;;;;;;;12.33;12.33;;;;;23.94;59.29;100132.69;6281159;20;3524269;-60
2022/09/04 13:30:20;;;;;;;;;13.33;13.33;;;;;24.50;58.06;100131.00;6288285;20;3522155;-58
2022/09/04 13:33:26;;;;;;;;;12.33;11.00;;;;;23.99;58.58;100132.19;6315929;20;2774317;-51
2022/09/04 13:36:36;;;;;;;;;11.67;11.67;;;;;24.47;57.31;100128.59;6313369;20;3511851;-60
2022/09/04 13:39:26;;;;;;;;;15.00;13.00;;;;;24.18;57.58;100126.34;6286180;20;3537785;-60
2022/09/04 13:42:08;;;;;;;;;13.00;13.00;;;;;23.94;58.28;100120.88;6318958;20;2483591;-58
2022/09/04 13:45:22;;;;;;;;;12.00;12.00;;;;;24.15;57.78;100118.47;6315208;20;2483609;-57
2022/09/04 13:48:39;;;;;;;;;12.00;12.00;;;;;24.33;57.74;100121.03;6313581;20;3517944;-57
2022/09/04 13:51:50;;;;;;;;;13.33;13.33;;;;;24.65;56.68;100119.31;6278252;20;2496302;-55